Birmingham, Alabama
Current Conditions -  °F | °C
As of 11:53 PM on Friday 28 Nov 2014 (Local Time) from KBHM Reporting Station
Clear Clear  
Wind Chill: 43°   Ceiling: Unl
Heat Index: 45°   Visibility: 10mi
Dew Point: 19°   Wind: 5mph
Humidity: 36%   Direction: 170°S
Pressure: 30.24"   Gusts: NA
Location:  33.52°N, 86.81°W
Report Text: KBHM 290553Z 17004KT 10SM CLR 07/M07 A3024 RMK AO2 SLP240 T00721072 10078 20056 401171039 58013
Loading
Personal Weather Stations






























Interactive Weather Map New forecast layout! Learn more

10-Day Weather Forecast

Advertisements
Track Severe Weather on mobile